sensor_id;sensor_type;location;lat;lon;timestamp;P1;durP1;ratioP1;P2;durP2;ratioP2
70320;SDS011;61127;55.826;37.046;2023-05-10T00:00:35;17.43;;;7.03;;
70320;SDS011;61127;55.826;37.046;2023-05-10T00:03:01;17.38;;;7.13;;
70320;SDS011;61127;55.826;37.046;2023-05-10T00:05:29;21.25;;;8.50;;
70320;SDS011;61127;55.826;37.046;2023-05-10T00:07:56;22.70;;;8.32;;
70320;SDS011;61127;55.826;37.046;2023-05-10T00:10:21;18.37;;;8.60;;
70320;SDS011;61127;55.826;37.046;2023-05-10T00:12:49;21.35;;;9.13;;
70320;SDS011;61127;55.826;37.046;2023-05-10T00:15:15;19.75;;;8.30;;
70320;SDS011;61127;55.826;37.046;2023-05-10T00:17:41;23.87;;;8.27;;
70320;SDS011;61127;55.826;37.046;2023-05-10T00:20:07;22.77;;;7.95;;
70320;SDS011;61127;55.826;37.046;2023-05-10T00:22:33;18.10;;;7.53;;
70320;SDS011;61127;55.826;37.046;2023-05-10T00:24:59;14.30;;;6.70;;
70320;SDS011;61127;55.826;37.046;2023-05-10T00:27:25;15.48;;;7.13;;
70320;SDS011;61127;55.826;37.046;2023-05-10T00:29:51;16.67;;;7.20;;
70320;SDS011;61127;55.826;37.046;2023-05-10T00:32:16;21.93;;;8.27;;
70320;SDS011;61127;55.826;37.046;2023-05-10T00:34:42;20.00;;;7.70;;
70320;SDS011;61127;55.826;37.046;2023-05-10T00:37:08;20.45;;;8.50;;
70320;SDS011;61127;55.826;37.046;2023-05-10T00:39:35;19.08;;;8.52;;
70320;SDS011;61127;55.826;37.046;2023-05-10T00:42:01;18.63;;;8.33;;
70320;SDS011;61127;55.826;37.046;2023-05-10T00:44:27;18.88;;;8.05;;
70320;SDS011;61127;55.826;37.046;2023-05-10T00:46:53;21.90;;;8.48;;
70320;SDS011;61127;55.826;37.046;2023-05-10T00:49:19;16.77;;;8.50;;
70320;SDS011;61127;55.826;37.046;2023-05-10T00:51:46;20.88;;;8.45;;
70320;SDS011;61127;55.826;37.046;2023-05-10T00:54:13;17.73;;;7.70;;
70320;SDS011;61127;55.826;37.046;2023-05-10T00:56:40;18.85;;;8.32;;
70320;SDS011;61127;55.826;37.046;2023-05-10T00:59:07;20.38;;;8.38;;
70320;SDS011;61127;55.826;37.046;2023-05-10T01:01:35;19.95;;;8.80;;
70320;SDS011;61127;55.826;37.046;2023-05-10T01:04:01;19.83;;;8.50;;
70320;SDS011;61127;55.826;37.046;2023-05-10T01:06:29;16.37;;;7.80;;
70320;SDS011;61127;55.826;37.046;2023-05-10T01:08:55;14.43;;;6.90;;
70320;SDS011;61127;55.826;37.046;2023-05-10T01:11:22;18.95;;;8.05;;
70320;SDS011;61127;55.826;37.046;2023-05-10T01:13:50;17.05;;;8.02;;
70320;SDS011;61127;55.826;37.046;2023-05-10T01:16:21;17.58;;;7.15;;
70320;SDS011;61127;55.826;37.046;2023-05-10T01:18:47;16.60;;;7.43;;
70320;SDS011;61127;55.826;37.046;2023-05-10T01:26:57;17.45;;;8.02;;
70320;SDS011;61127;55.826;37.046;2023-05-10T01:35:46;19.15;;;7.13;;
70320;SDS011;61127;55.826;37.046;2023-05-10T01:41:28;18.17;;;7.10;;
70320;SDS011;61127;55.826;37.046;2023-05-10T01:44:01;14.43;;;7.15;;
70320;SDS011;61127;55.826;37.046;2023-05-10T01:46:40;13.80;;;5.70;;
70320;SDS011;61127;55.826;37.046;2023-05-10T01:49:10;13.07;;;6.32;;
70320;SDS011;61127;55.826;37.046;2023-05-10T01:51:49;16.67;;;7.28;;
70320;SDS011;61127;55.826;37.046;2023-05-10T01:54:19;12.90;;;6.25;;
70320;SDS011;61127;55.826;37.046;2023-05-10T01:56:47;12.23;;;5.60;;
70320;SDS011;61127;55.826;37.046;2023-05-10T01:59:18;10.15;;;5.60;;
70320;SDS011;61127;55.826;37.046;2023-05-10T02:01:46;12.85;;;5.70;;
70320;SDS011;61127;55.826;37.046;2023-05-10T02:04:16;10.75;;;5.28;;
70320;SDS011;61127;55.826;37.046;2023-05-10T02:06:45;11.32;;;5.53;;
70320;SDS011;61127;55.826;37.046;2023-05-10T02:09:13;13.35;;;5.22;;
70320;SDS011;61127;55.826;37.046;2023-05-10T02:11:41;13.27;;;5.47;;
70320;SDS011;61127;55.826;37.046;2023-05-10T02:14:10;12.40;;;5.97;;
70320;SDS011;61127;55.826;37.046;2023-05-10T02:16:36;13.60;;;6.63;;
70320;SDS011;61127;55.826;37.046;2023-05-10T02:19:04;14.05;;;5.97;;
70320;SDS011;61127;55.826;37.046;2023-05-10T02:21:31;13.95;;;6.30;;
70320;SDS011;61127;55.826;37.046;2023-05-10T02:24:00;16.13;;;7.40;;
70320;SDS011;61127;55.826;37.046;2023-05-10T02:26:28;14.95;;;6.43;;
70320;SDS011;61127;55.826;37.046;2023-05-10T02:28:55;15.63;;;7.13;;
70320;SDS011;61127;55.826;37.046;2023-05-10T02:31:23;16.50;;;6.68;;
70320;SDS011;61127;55.826;37.046;2023-05-10T02:33:50;14.85;;;7.35;;
70320;SDS011;61127;55.826;37.046;2023-05-10T02:36:17;14.93;;;6.93;;
70320;SDS011;61127;55.826;37.046;2023-05-10T02:38:44;18.05;;;6.93;;
70320;SDS011;61127;55.826;37.046;2023-05-10T02:41:11;20.52;;;7.90;;
70320;SDS011;61127;55.826;37.046;2023-05-10T02:43:38;22.00;;;7.78;;
70320;SDS011;61127;55.826;37.046;2023-05-10T02:46:07;18.10;;;7.22;;
70320;SDS011;61127;55.826;37.046;2023-05-10T02:48:34;20.58;;;7.65;;
70320;SDS011;61127;55.826;37.046;2023-05-10T02:51:02;17.08;;;7.28;;
70320;SDS011;61127;55.826;37.046;2023-05-10T02:53:36;17.58;;;6.93;;
70320;SDS011;61127;55.826;37.046;2023-05-10T02:56:05;20.05;;;7.60;;
70320;SDS011;61127;55.826;37.046;2023-05-10T02:58:36;15.45;;;7.15;;
70320;SDS011;61127;55.826;37.046;2023-05-10T03:01:02;14.70;;;7.22;;
70320;SDS011;61127;55.826;37.046;2023-05-10T03:03:28;19.80;;;6.70;;
70320;SDS011;61127;55.826;37.046;2023-05-10T03:05:54;17.20;;;6.90;;
70320;SDS011;61127;55.826;37.046;2023-05-10T03:08:22;17.95;;;6.63;;
70320;SDS011;61127;55.826;37.046;2023-05-10T03:11:01;13.97;;;6.47;;
70320;SDS011;61127;55.826;37.046;2023-05-10T03:13:56;15.70;;;6.95;;
70320;SDS011;61127;55.826;37.046;2023-05-10T03:17:14;14.82;;;6.57;;
70320;SDS011;61127;55.826;37.046;2023-05-10T03:19:37;14.18;;;6.22;;
70320;SDS011;61127;55.826;37.046;2023-05-10T03:22:11;15.85;;;6.35;;
70320;SDS011;61127;55.826;37.046;2023-05-10T03:24:42;14.00;;;6.47;;
70320;SDS011;61127;55.826;37.046;2023-05-10T03:27:09;17.33;;;7.22;;
70320;SDS011;61127;55.826;37.046;2023-05-10T03:29:37;17.55;;;7.00;;
70320;SDS011;61127;55.826;37.046;2023-05-10T03:32:04;12.88;;;6.25;;
70320;SDS011;61127;55.826;37.046;2023-05-10T03:34:31;14.13;;;6.35;;
70320;SDS011;61127;55.826;37.046;2023-05-10T03:36:57;16.27;;;6.60;;
70320;SDS011;61127;55.826;37.046;2023-05-10T03:39:24;16.23;;;6.55;;
70320;SDS011;61127;55.826;37.046;2023-05-10T03:41:54;15.27;;;7.18;;
70320;SDS011;61127;55.826;37.046;2023-05-10T03:44:20;13.15;;;5.70;;
70320;SDS011;61127;55.826;37.046;2023-05-10T03:46:47;12.73;;;6.07;;
70320;SDS011;61127;55.826;37.046;2023-05-10T03:49:14;15.75;;;7.10;;
70320;SDS011;61127;55.826;37.046;2023-05-10T03:51:39;15.57;;;6.28;;
70320;SDS011;61127;55.826;37.046;2023-05-10T03:54:05;13.07;;;5.90;;
70320;SDS011;61127;55.826;37.046;2023-05-10T03:56:32;13.23;;;6.28;;
70320;SDS011;61127;55.826;37.046;2023-05-10T03:58:59;19.35;;;5.80;;
70320;SDS011;61127;55.826;37.046;2023-05-10T04:01:25;14.57;;;5.78;;
70320;SDS011;61127;55.826;37.046;2023-05-10T04:03:51;13.17;;;5.83;;
70320;SDS011;61127;55.826;37.046;2023-05-10T04:06:17;14.38;;;5.95;;
70320;SDS011;61127;55.826;37.046;2023-05-10T04:08:43;12.15;;;5.95;;
70320;SDS011;61127;55.826;37.046;2023-05-10T04:11:09;15.10;;;5.93;;
70320;SDS011;61127;55.826;37.046;2023-05-10T04:13:36;14.97;;;5.93;;
70320;SDS011;61127;55.826;37.046;2023-05-10T04:16:03;12.30;;;5.57;;
70320;SDS011;61127;55.826;37.046;2023-05-10T04:18:31;20.35;;;6.82;;
70320;SDS011;61127;55.826;37.046;2023-05-10T04:20:57;12.98;;;5.47;;
70320;SDS011;61127;55.826;37.046;2023-05-10T04:23:24;13.48;;;5.97;;
70320;SDS011;61127;55.826;37.046;2023-05-10T04:25:49;14.60;;;5.53;;
70320;SDS011;61127;55.826;37.046;2023-05-10T04:28:16;12.27;;;5.47;;
70320;SDS011;61127;55.826;37.046;2023-05-10T04:30:42;13.65;;;5.60;;
70320;SDS011;61127;55.826;37.046;2023-05-10T04:33:07;13.13;;;5.97;;
70320;SDS011;61127;55.826;37.046;2023-05-10T04:35:34;10.98;;;5.50;;
70320;SDS011;61127;55.826;37.046;2023-05-10T04:38:00;10.70;;;5.25;;
70320;SDS011;61127;55.826;37.046;2023-05-10T04:40:26;11.05;;;5.55;;
70320;SDS011;61127;55.826;37.046;2023-05-10T04:42:52;13.17;;;5.40;;
70320;SDS011;61127;55.826;37.046;2023-05-10T04:45:18;12.82;;;5.45;;
70320;SDS011;61127;55.826;37.046;2023-05-10T04:47:44;14.77;;;5.18;;
70320;SDS011;61127;55.826;37.046;2023-05-10T04:50:10;10.10;;;5.60;;
70320;SDS011;61127;55.826;37.046;2023-05-10T04:52:36;9.32;;;5.00;;
70320;SDS011;61127;55.826;37.046;2023-05-10T04:55:02;11.15;;;4.53;;
70320;SDS011;61127;55.826;37.046;2023-05-10T04:57:29;9.50;;;4.38;;
70320;SDS011;61127;55.826;37.046;2023-05-10T04:59:54;14.33;;;5.17;;
70320;SDS011;61127;55.826;37.046;2023-05-10T05:02:21;10.80;;;4.38;;
70320;SDS011;61127;55.826;37.046;2023-05-10T05:04:47;9.88;;;4.22;;
70320;SDS011;61127;55.826;37.046;2023-05-10T05:07:13;7.47;;;3.83;;
70320;SDS011;61127;55.826;37.046;2023-05-10T05:09:38;7.90;;;3.90;;
70320;SDS011;61127;55.826;37.046;2023-05-10T05:12:04;8.07;;;3.97;;
70320;SDS011;61127;55.826;37.046;2023-05-10T05:14:30;7.40;;;3.83;;
70320;SDS011;61127;55.826;37.046;2023-05-10T05:16:56;6.70;;;3.40;;
70320;SDS011;61127;55.826;37.046;2023-05-10T05:19:22;6.85;;;3.67;;
70320;SDS011;61127;55.826;37.046;2023-05-10T05:21:49;9.77;;;3.63;;
70320;SDS011;61127;55.826;37.046;2023-05-10T05:24:14;6.88;;;3.13;;
70320;SDS011;61127;55.826;37.046;2023-05-10T05:26:40;9.27;;;3.37;;
70320;SDS011;61127;55.826;37.046;2023-05-10T05:29:06;7.80;;;3.40;;
70320;SDS011;61127;55.826;37.046;2023-05-10T05:31:32;7.55;;;3.30;;
70320;SDS011;61127;55.826;37.046;2023-05-10T05:33:58;7.30;;;3.30;;
70320;SDS011;61127;55.826;37.046;2023-05-10T05:36:24;8.20;;;2.85;;
70320;SDS011;61127;55.826;37.046;2023-05-10T05:38:50;6.80;;;3.33;;
70320;SDS011;61127;55.826;37.046;2023-05-10T05:41:16;8.85;;;3.15;;
70320;SDS011;61127;55.826;37.046;2023-05-10T05:43:42;9.37;;;3.60;;
70320;SDS011;61127;55.826;37.046;2023-05-10T05:46:08;7.32;;;3.45;;
70320;SDS011;61127;55.826;37.046;2023-05-10T05:48:34;6.97;;;3.10;;
70320;SDS011;61127;55.826;37.046;2023-05-10T05:51:00;8.95;;;2.90;;
70320;SDS011;61127;55.826;37.046;2023-05-10T05:53:26;7.37;;;3.70;;
70320;SDS011;61127;55.826;37.046;2023-05-10T05:55:53;7.35;;;3.22;;
70320;SDS011;61127;55.826;37.046;2023-05-10T05:58:21;8.30;;;3.30;;
70320;SDS011;61127;55.826;37.046;2023-05-10T06:00:48;11.45;;;3.60;;
70320;SDS011;61127;55.826;37.046;2023-05-10T06:03:14;7.60;;;3.55;;
70320;SDS011;61127;55.826;37.046;2023-05-10T06:05:40;7.67;;;3.43;;
70320;SDS011;61127;55.826;37.046;2023-05-10T06:08:06;7.80;;;3.25;;
70320;SDS011;61127;55.826;37.046;2023-05-10T06:10:32;7.25;;;3.28;;
70320;SDS011;61127;55.826;37.046;2023-05-10T06:12:58;6.93;;;3.22;;
70320;SDS011;61127;55.826;37.046;2023-05-10T06:15:25;6.47;;;3.03;;
70320;SDS011;61127;55.826;37.046;2023-05-10T06:17:51;7.85;;;3.00;;
70320;SDS011;61127;55.826;37.046;2023-05-10T06:20:17;6.57;;;3.40;;
70320;SDS011;61127;55.826;37.046;2023-05-10T06:22:43;8.40;;;2.60;;
70320;SDS011;61127;55.826;37.046;2023-05-10T06:25:10;4.50;;;2.50;;
70320;SDS011;61127;55.826;37.046;2023-05-10T06:27:36;3.93;;;2.27;;
70320;SDS011;61127;55.826;37.046;2023-05-10T06:30:03;5.68;;;2.30;;
70320;SDS011;61127;55.826;37.046;2023-05-10T06:32:30;5.50;;;2.58;;
70320;SDS011;61127;55.826;37.046;2023-05-10T06:34:56;5.05;;;2.60;;
70320;SDS011;61127;55.826;37.046;2023-05-10T06:37:21;6.27;;;2.43;;
70320;SDS011;61127;55.826;37.046;2023-05-10T06:39:47;5.72;;;2.60;;
70320;SDS011;61127;55.826;37.046;2023-05-10T06:42:13;6.47;;;2.42;;
70320;SDS011;61127;55.826;37.046;2023-05-10T06:44:44;5.55;;;2.40;;
70320;SDS011;61127;55.826;37.046;2023-05-10T06:47:10;4.60;;;2.10;;
70320;SDS011;61127;55.826;37.046;2023-05-10T06:49:36;6.07;;;2.47;;
70320;SDS011;61127;55.826;37.046;2023-05-10T06:52:02;3.65;;;1.92;;
70320;SDS011;61127;55.826;37.046;2023-05-10T06:54:28;3.23;;;2.00;;
70320;SDS011;61127;55.826;37.046;2023-05-10T06:56:54;4.70;;;2.03;;
70320;SDS011;61127;55.826;37.046;2023-05-10T06:59:21;6.78;;;2.38;;
70320;SDS011;61127;55.826;37.046;2023-05-10T07:01:47;7.47;;;2.30;;
70320;SDS011;61127;55.826;37.046;2023-05-10T07:04:13;4.78;;;1.92;;
70320;SDS011;61127;55.826;37.046;2023-05-10T07:06:39;3.63;;;1.88;;
70320;SDS011;61127;55.826;37.046;2023-05-10T07:09:05;3.47;;;1.88;;
70320;SDS011;61127;55.826;37.046;2023-05-10T07:11:32;5.10;;;2.00;;
70320;SDS011;61127;55.826;37.046;2023-05-10T07:13:58;4.35;;;2.20;;
70320;SDS011;61127;55.826;37.046;2023-05-10T07:16:24;4.70;;;2.30;;
70320;SDS011;61127;55.826;37.046;2023-05-10T07:18:51;5.18;;;2.20;;
70320;SDS011;61127;55.826;37.046;2023-05-10T07:21:18;5.55;;;2.05;;
70320;SDS011;61127;55.826;37.046;2023-05-10T07:23:44;5.67;;;2.00;;
70320;SDS011;61127;55.826;37.046;2023-05-10T07:26:10;4.32;;;1.80;;
70320;SDS011;61127;55.826;37.046;2023-05-10T07:28:36;6.35;;;2.13;;
70320;SDS011;61127;55.826;37.046;2023-05-10T07:31:03;4.97;;;2.17;;
70320;SDS011;61127;55.826;37.046;2023-05-10T07:33:29;3.42;;;1.70;;
70320;SDS011;61127;55.826;37.046;2023-05-10T07:35:55;4.25;;;1.98;;
70320;SDS011;61127;55.826;37.046;2023-05-10T07:38:22;6.85;;;1.90;;
70320;SDS011;61127;55.826;37.046;2023-05-10T07:40:48;3.07;;;1.77;;
70320;SDS011;61127;55.826;37.046;2023-05-10T07:43:14;3.47;;;1.70;;
70320;SDS011;61127;55.826;37.046;2023-05-10T07:45:40;2.70;;;1.60;;
70320;SDS011;61127;55.826;37.046;2023-05-10T07:48:06;2.97;;;1.50;;
70320;SDS011;61127;55.826;37.046;2023-05-10T07:50:32;3.42;;;1.35;;
70320;SDS011;61127;55.826;37.046;2023-05-10T07:52:58;3.13;;;1.60;;
70320;SDS011;61127;55.826;37.046;2023-05-10T07:55:23;3.53;;;1.70;;
70320;SDS011;61127;55.826;37.046;2023-05-10T07:57:49;3.95;;;2.00;;
70320;SDS011;61127;55.826;37.046;2023-05-10T08:00:19;4.05;;;2.00;;
70320;SDS011;61127;55.826;37.046;2023-05-10T08:02:45;2.95;;;2.00;;
70320;SDS011;61127;55.826;37.046;2023-05-10T08:05:12;6.40;;;1.80;;
70320;SDS011;61127;55.826;37.046;2023-05-10T08:07:39;5.88;;;2.10;;
70320;SDS011;61127;55.826;37.046;2023-05-10T08:10:05;5.80;;;2.15;;
70320;SDS011;61127;55.826;37.046;2023-05-10T08:12:32;3.80;;;2.00;;
70320;SDS011;61127;55.826;37.046;2023-05-10T08:14:58;4.30;;;2.00;;
70320;SDS011;61127;55.826;37.046;2023-05-10T08:17:24;3.08;;;1.70;;
70320;SDS011;61127;55.826;37.046;2023-05-10T08:19:50;3.63;;;1.90;;
70320;SDS011;61127;55.826;37.046;2023-05-10T08:22:16;5.63;;;2.00;;
70320;SDS011;61127;55.826;37.046;2023-05-10T08:24:42;4.10;;;1.92;;
70320;SDS011;61127;55.826;37.046;2023-05-10T08:27:08;3.20;;;1.90;;
70320;SDS011;61127;55.826;37.046;2023-05-10T08:29:34;3.13;;;1.60;;
70320;SDS011;61127;55.826;37.046;2023-05-10T08:32:00;2.92;;;1.60;;
70320;SDS011;61127;55.826;37.046;2023-05-10T08:34:26;2.58;;;1.60;;
70320;SDS011;61127;55.826;37.046;2023-05-10T08:36:52;3.55;;;1.83;;
70320;SDS011;61127;55.826;37.046;2023-05-10T08:39:18;5.30;;;1.60;;
70320;SDS011;61127;55.826;37.046;2023-05-10T08:41:44;2.40;;;1.63;;
70320;SDS011;61127;55.826;37.046;2023-05-10T08:44:13;4.57;;;1.75;;
70320;SDS011;61127;55.826;37.046;2023-05-10T08:46:40;1.98;;;1.35;;
70320;SDS011;61127;55.826;37.046;2023-05-10T08:49:10;4.60;;;1.77;;
70320;SDS011;61127;55.826;37.046;2023-05-10T08:51:49;3.03;;;1.50;;
70320;SDS011;61127;55.826;37.046;2023-05-10T08:54:19;3.25;;;1.77;;
70320;SDS011;61127;55.826;37.046;2023-05-10T08:56:45;3.08;;;1.40;;
70320;SDS011;61127;55.826;37.046;2023-05-10T08:59:11;2.97;;;1.65;;
70320;SDS011;61127;55.826;37.046;2023-05-10T09:01:39;3.97;;;1.90;;
70320;SDS011;61127;55.826;37.046;2023-05-10T09:04:06;2.65;;;1.85;;
70320;SDS011;61127;55.826;37.046;2023-05-10T09:06:32;2.78;;;1.60;;
70320;SDS011;61127;55.826;37.046;2023-05-10T09:08:58;3.83;;;1.80;;
70320;SDS011;61127;55.826;37.046;2023-05-10T09:11:25;2.93;;;1.67;;
70320;SDS011;61127;55.826;37.046;2023-05-10T09:13:54;3.88;;;1.63;;
70320;SDS011;61127;55.826;37.046;2023-05-10T09:16:21;3.13;;;1.80;;
70320;SDS011;61127;55.826;37.046;2023-05-10T09:18:48;9.13;;;2.00;;
70320;SDS011;61127;55.826;37.046;2023-05-10T09:21:15;5.45;;;1.77;;
70320;SDS011;61127;55.826;37.046;2023-05-10T09:23:44;5.63;;;1.73;;
70320;SDS011;61127;55.826;37.046;2023-05-10T09:26:12;6.22;;;1.85;;
70320;SDS011;61127;55.826;37.046;2023-05-10T09:28:54;4.60;;;2.05;;
70320;SDS011;61127;55.826;37.046;2023-05-10T09:31:21;3.15;;;1.58;;
70320;SDS011;61127;55.826;37.046;2023-05-10T09:33:48;5.15;;;1.63;;
70320;SDS011;61127;55.826;37.046;2023-05-10T09:36:15;3.77;;;1.93;;
70320;SDS011;61127;55.826;37.046;2023-05-10T09:38:51;4.68;;;1.80;;
70320;SDS011;61127;55.826;37.046;2023-05-10T09:43:45;5.47;;;1.70;;
70320;SDS011;61127;55.826;37.046;2023-05-10T09:46:12;3.45;;;1.90;;
70320;SDS011;61127;55.826;37.046;2023-05-10T09:48:43;3.20;;;1.60;;
70320;SDS011;61127;55.826;37.046;2023-05-10T09:51:19;5.70;;;1.85;;
70320;SDS011;61127;55.826;37.046;2023-05-10T09:53:46;2.70;;;1.50;;
70320;SDS011;61127;55.826;37.046;2023-05-10T09:56:11;3.50;;;1.63;;
70320;SDS011;61127;55.826;37.046;2023-05-10T09:58:39;3.80;;;1.80;;
70320;SDS011;61127;55.826;37.046;2023-05-10T10:01:10;4.68;;;2.03;;
70320;SDS011;61127;55.826;37.046;2023-05-10T10:03:43;3.30;;;1.75;;
70320;SDS011;61127;55.826;37.046;2023-05-10T10:06:09;3.88;;;1.70;;
70320;SDS011;61127;55.826;37.046;2023-05-10T10:08:35;3.13;;;1.40;;
70320;SDS011;61127;55.826;37.046;2023-05-10T10:11:02;2.10;;;1.67;;
70320;SDS011;61127;55.826;37.046;2023-05-10T10:13:28;2.92;;;1.63;;
70320;SDS011;61127;55.826;37.046;2023-05-10T10:15:54;5.00;;;1.77;;
70320;SDS011;61127;55.826;37.046;2023-05-10T10:18:20;3.75;;;2.00;;
70320;SDS011;61127;55.826;37.046;2023-05-10T10:20:52;4.70;;;2.15;;
70320;SDS011;61127;55.826;37.046;2023-05-10T10:23:19;7.22;;;2.80;;
70320;SDS011;61127;55.826;37.046;2023-05-10T10:25:46;4.82;;;2.10;;
70320;SDS011;61127;55.826;37.046;2023-05-10T10:28:32;3.50;;;1.80;;
70320;SDS011;61127;55.826;37.046;2023-05-10T10:31:12;3.28;;;1.80;;
70320;SDS011;61127;55.826;37.046;2023-05-10T10:36:33;3.65;;;1.67;;
70320;SDS011;61127;55.826;37.046;2023-05-10T10:39:08;2.72;;;1.90;;
70320;SDS011;61127;55.826;37.046;2023-05-10T10:41:38;7.00;;;2.03;;
70320;SDS011;61127;55.826;37.046;2023-05-10T10:47:00;2.67;;;1.70;;
70320;SDS011;61127;55.826;37.046;2023-05-10T10:49:31;2.72;;;1.80;;
70320;SDS011;61127;55.826;37.046;2023-05-10T10:57:24;6.78;;;3.20;;
70320;SDS011;61127;55.826;37.046;2023-05-10T10:59:53;3.45;;;1.85;;
70320;SDS011;61127;55.826;37.046;2023-05-10T11:03:09;2.92;;;1.88;;
70320;SDS011;61127;55.826;37.046;2023-05-10T11:05:43;4.22;;;1.90;;
70320;SDS011;61127;55.826;37.046;2023-05-10T11:08:26;4.73;;;1.73;;
70320;SDS011;61127;55.826;37.046;2023-05-10T11:19:10;4.05;;;1.77;;
70320;SDS011;61127;55.826;37.046;2023-05-10T11:21:47;3.30;;;1.70;;
70320;SDS011;61127;55.826;37.046;2023-05-10T11:24:14;4.15;;;1.80;;
70320;SDS011;61127;55.826;37.046;2023-05-10T11:26:41;4.50;;;1.80;;
70320;SDS011;61127;55.826;37.046;2023-05-10T11:29:12;5.63;;;2.13;;
70320;SDS011;61127;55.826;37.046;2023-05-10T11:31:44;4.03;;;2.40;;
70320;SDS011;61127;55.826;37.046;2023-05-10T11:34:13;3.93;;;1.83;;
70320;SDS011;61127;55.826;37.046;2023-05-10T11:36:52;4.07;;;1.85;;
70320;SDS011;61127;55.826;37.046;2023-05-10T11:39:20;3.00;;;1.70;;
70320;SDS011;61127;55.826;37.046;2023-05-10T11:41:49;5.57;;;1.90;;
70320;SDS011;61127;55.826;37.046;2023-05-10T11:44:15;4.95;;;1.92;;
70320;SDS011;61127;55.826;37.046;2023-05-10T11:46:42;4.57;;;1.90;;
70320;SDS011;61127;55.826;37.046;2023-05-10T11:49:07;4.15;;;2.00;;
70320;SDS011;61127;55.826;37.046;2023-05-10T11:51:34;3.15;;;2.00;;
70320;SDS011;61127;55.826;37.046;2023-05-10T11:54:01;6.38;;;2.10;;
70320;SDS011;61127;55.826;37.046;2023-05-10T11:56:34;7.35;;;2.10;;
70320;SDS011;61127;55.826;37.046;2023-05-10T11:59:01;3.50;;;1.90;;
70320;SDS011;61127;55.826;37.046;2023-05-10T12:01:28;3.65;;;1.80;;
70320;SDS011;61127;55.826;37.046;2023-05-10T12:03:54;3.85;;;2.10;;
70320;SDS011;61127;55.826;37.046;2023-05-10T12:06:31;4.90;;;2.00;;
70320;SDS011;61127;55.826;37.046;2023-05-10T12:09:07;4.95;;;1.83;;
70320;SDS011;61127;55.826;37.046;2023-05-10T12:11:36;5.73;;;2.07;;
70320;SDS011;61127;55.826;37.046;2023-05-10T12:14:06;4.10;;;1.95;;
70320;SDS011;61127;55.826;37.046;2023-05-10T12:16:33;6.03;;;2.35;;
70320;SDS011;61127;55.826;37.046;2023-05-10T12:19:00;2.50;;;1.70;;
70320;SDS011;61127;55.826;37.046;2023-05-10T12:21:27;6.93;;;2.10;;
70320;SDS011;61127;55.826;37.046;2023-05-10T12:23:58;4.53;;;1.90;;
70320;SDS011;61127;55.826;37.046;2023-05-10T12:26:25;7.00;;;2.90;;
70320;SDS011;61127;55.826;37.046;2023-05-10T12:28:53;4.70;;;2.22;;
70320;SDS011;61127;55.826;37.046;2023-05-10T12:31:20;4.57;;;2.20;;
70320;SDS011;61127;55.826;37.046;2023-05-10T12:33:47;3.90;;;1.90;;
70320;SDS011;61127;55.826;37.046;2023-05-10T12:36:16;3.50;;;1.90;;
70320;SDS011;61127;55.826;37.046;2023-05-10T12:38:44;3.45;;;1.83;;
70320;SDS011;61127;55.826;37.046;2023-05-10T12:41:14;3.67;;;1.90;;
70320;SDS011;61127;55.826;37.046;2023-05-10T12:43:43;4.90;;;1.83;;
70320;SDS011;61127;55.826;37.046;2023-05-10T12:46:14;5.40;;;1.70;;
70320;SDS011;61127;55.826;37.046;2023-05-10T12:48:44;3.63;;;1.80;;
70320;SDS011;61127;55.826;37.046;2023-05-10T12:51:11;2.60;;;1.80;;
70320;SDS011;61127;55.826;37.046;2023-05-10T12:53:39;3.05;;;1.80;;
70320;SDS011;61127;55.826;37.046;2023-05-10T12:56:05;5.07;;;2.33;;
70320;SDS011;61127;55.826;37.046;2023-05-10T12:58:35;4.07;;;1.93;;
70320;SDS011;61127;55.826;37.046;2023-05-10T13:01:01;4.15;;;2.20;;
70320;SDS011;61127;55.826;37.046;2023-05-10T13:03:27;4.95;;;1.95;;
70320;SDS011;61127;55.826;37.046;2023-05-10T13:05:53;2.63;;;1.70;;
70320;SDS011;61127;55.826;37.046;2023-05-10T13:08:19;5.93;;;1.87;;
70320;SDS011;61127;55.826;37.046;2023-05-10T13:10:45;6.50;;;1.95;;
70320;SDS011;61127;55.826;37.046;2023-05-10T13:13:11;4.10;;;1.80;;
70320;SDS011;61127;55.826;37.046;2023-05-10T13:15:37;3.63;;;2.10;;
70320;SDS011;61127;55.826;37.046;2023-05-10T13:18:03;4.22;;;1.70;;
70320;SDS011;61127;55.826;37.046;2023-05-10T13:20:30;3.50;;;1.70;;
70320;SDS011;61127;55.826;37.046;2023-05-10T13:22:56;2.80;;;1.83;;
70320;SDS011;61127;55.826;37.046;2023-05-10T13:25:21;4.13;;;2.00;;
70320;SDS011;61127;55.826;37.046;2023-05-10T13:27:47;3.65;;;2.00;;
70320;SDS011;61127;55.826;37.046;2023-05-10T13:30:13;5.93;;;2.20;;
70320;SDS011;61127;55.826;37.046;2023-05-10T13:32:40;4.27;;;2.33;;
70320;SDS011;61127;55.826;37.046;2023-05-10T13:35:06;3.45;;;1.90;;
70320;SDS011;61127;55.826;37.046;2023-05-10T13:37:32;5.30;;;2.20;;
70320;SDS011;61127;55.826;37.046;2023-05-10T13:40:03;5.95;;;2.33;;
70320;SDS011;61127;55.826;37.046;2023-05-10T13:42:30;6.55;;;2.28;;
70320;SDS011;61127;55.826;37.046;2023-05-10T13:44:59;6.07;;;2.53;;
70320;SDS011;61127;55.826;37.046;2023-05-10T13:47:26;6.65;;;2.17;;
70320;SDS011;61127;55.826;37.046;2023-05-10T13:49:52;3.60;;;2.22;;
70320;SDS011;61127;55.826;37.046;2023-05-10T13:52:18;5.30;;;2.00;;
70320;SDS011;61127;55.826;37.046;2023-05-10T13:54:44;4.93;;;2.40;;
70320;SDS011;61127;55.826;37.046;2023-05-10T13:57:10;3.08;;;2.10;;
70320;SDS011;61127;55.826;37.046;2023-05-10T13:59:38;3.85;;;1.85;;
70320;SDS011;61127;55.826;37.046;2023-05-10T14:02:03;4.82;;;2.25;;
70320;SDS011;61127;55.826;37.046;2023-05-10T14:04:29;5.10;;;2.00;;
70320;SDS011;61127;55.826;37.046;2023-05-10T14:06:55;5.70;;;2.00;;
70320;SDS011;61127;55.826;37.046;2023-05-10T14:09:21;4.00;;;2.10;;
70320;SDS011;61127;55.826;37.046;2023-05-10T14:11:47;5.22;;;1.83;;
70320;SDS011;61127;55.826;37.046;2023-05-10T14:14:13;4.97;;;2.10;;
70320;SDS011;61127;55.826;37.046;2023-05-10T14:16:43;4.35;;;2.10;;
70320;SDS011;61127;55.826;37.046;2023-05-10T14:19:09;4.70;;;1.70;;
70320;SDS011;61127;55.826;37.046;2023-05-10T14:21:36;4.00;;;1.70;;
70320;SDS011;61127;55.826;37.046;2023-05-10T14:24:02;5.97;;;1.87;;
70320;SDS011;61127;55.826;37.046;2023-05-10T14:26:28;4.18;;;1.88;;
70320;SDS011;61127;55.826;37.046;2023-05-10T14:28:54;5.43;;;1.90;;
70320;SDS011;61127;55.826;37.046;2023-05-10T14:31:20;3.13;;;1.90;;
70320;SDS011;61127;55.826;37.046;2023-05-10T14:33:46;3.40;;;1.80;;
70320;SDS011;61127;55.826;37.046;2023-05-10T14:36:12;7.20;;;2.35;;
70320;SDS011;61127;55.826;37.046;2023-05-10T14:38:40;8.10;;;2.47;;
70320;SDS011;61127;55.826;37.046;2023-05-10T14:41:06;5.17;;;2.30;;
70320;SDS011;61127;55.826;37.046;2023-05-10T14:43:32;4.72;;;2.00;;
70320;SDS011;61127;55.826;37.046;2023-05-10T14:45:58;3.47;;;1.80;;
70320;SDS011;61127;55.826;37.046;2023-05-10T14:48:24;3.20;;;1.70;;
70320;SDS011;61127;55.826;37.046;2023-05-10T14:50:50;5.40;;;1.93;;
70320;SDS011;61127;55.826;37.046;2023-05-10T14:53:17;3.88;;;1.65;;
70320;SDS011;61127;55.826;37.046;2023-05-10T14:55:43;4.00;;;2.08;;
70320;SDS011;61127;55.826;37.046;2023-05-10T14:58:09;4.60;;;2.00;;
70320;SDS011;61127;55.826;37.046;2023-05-10T15:00:35;4.90;;;2.00;;
70320;SDS011;61127;55.826;37.046;2023-05-10T15:03:01;4.53;;;2.00;;
70320;SDS011;61127;55.826;37.046;2023-05-10T15:05:27;4.10;;;1.90;;
70320;SDS011;61127;55.826;37.046;2023-05-10T15:07:53;4.97;;;1.93;;
70320;SDS011;61127;55.826;37.046;2023-05-10T15:10:19;5.80;;;1.90;;